Time;durP1;ratioP1;P1;durP2;ratioP2;P2;SDS_P1;SDS_P2;PMS_P1;PMS_P2;Temp;Humidity;BMP_temperature;BMP_pressure;BME280_temperature;BME280_humidity;BME280_pressure;Samples;Min_cycle;Max_cycle;Signal;HPM_P1;HPM_P2
2023/01/02 00:01:52;;;;;;;6.15;2.65;;;15.60;70.10;;;;;;5029360;28;20044;-52
2023/01/02 00:04:20;;;;;;;5.25;2.60;;;15.60;69.90;;;;;;5028274;28;20037;-53
2023/01/02 00:06:47;;;;;;;4.97;2.47;;;15.70;69.90;;;;;;5026766;28;20050;-51
2023/01/02 00:09:17;;;;;;;9.88;3.38;;;15.70;69.80;;;;;;5028322;28;20034;-50
2023/01/02 00:11:47;;;;;;;4.93;2.67;;;15.80;69.60;;;;;;5029737;28;20465;-52
2023/01/02 00:14:25;;;;;;;4.63;2.55;;;15.80;69.20;;;;;;5004463;28;20056;-52
2023/01/02 00:16:53;;;;;;;5.35;2.10;;;15.90;69.20;;;;;;5032568;28;20049;-50
2023/01/02 00:19:30;;;;;;;5.50;3.80;;;15.90;69.30;;;;;;5029043;28;20041;-50
2023/01/02 00:21:58;;;;;;;5.88;2.28;;;16.00;69.00;;;;;;5029471;28;20107;-51
2023/01/02 00:24:25;;;;;;;7.88;2.85;;;16.00;68.70;;;;;;5026939;28;20521;-53
2023/01/02 00:26:54;;;;;;;3.50;2.20;;;16.10;68.50;;;;;;5021725;28;20048;-53
2023/01/02 00:29:21;;;;;;;6.25;2.00;;;16.20;68.50;;;;;;5010582;28;20055;-50
2023/01/02 00:31:49;;;;;;;6.38;2.83;;;16.20;68.30;;;;;;5029444;28;20419;-50
2023/01/02 00:34:16;;;;;;;21.63;4.38;;;16.30;68.20;;;;;;5026457;28;20042;-51
2023/01/02 00:36:45;;;;;;;4.82;2.17;;;16.30;67.90;;;;;;5010757;28;20085;-54
2023/01/02 00:39:11;;;;;;;4.03;1.90;;;16.40;67.70;;;;;;5027502;28;20386;-50
2023/01/02 00:41:39;;;;;;;5.32;2.25;;;16.40;67.60;;;;;;5029342;28;20045;-51
2023/01/02 00:44:06;;;;;;;5.60;2.33;;;16.50;67.60;;;;;;5027558;28;20037;-54
2023/01/02 00:46:33;;;;;;;3.20;2.15;;;16.50;67.20;;;;;;5029348;28;20091;-51
2023/01/02 00:49:02;;;;;;;6.47;2.17;;;16.60;67.30;;;;;;5028123;28;20505;-51
2023/01/02 00:51:28;;;;;;;7.45;3.40;;;16.60;67.20;;;;;;5029107;28;20132;-51
2023/01/02 00:54:00;;;;;;;5.22;2.15;;;16.70;67.10;;;;;;5026835;28;20757;-54
2023/01/02 00:56:29;;;;;;;3.67;2.17;;;16.70;67.10;;;;;;5015008;28;20107;-52
2023/01/02 00:58:59;;;;;;;5.68;2.45;;;16.70;67.00;;;;;;5027985;28;20133;-51
2023/01/02 01:01:28;;;;;;;5.65;2.08;;;16.80;67.00;;;;;;5011365;28;20124;-51
2023/01/02 01:03:55;;;;;;;7.07;2.75;;;16.80;67.10;;;;;;5027659;28;20041;-51
2023/01/02 01:06:22;;;;;;;6.35;2.40;;;16.80;67.30;;;;;;5029040;28;20487;-51
2023/01/02 01:08:51;;;;;;;4.55;2.50;;;16.80;67.40;;;;;;5032382;28;20505;-49
2023/01/02 01:11:18;;;;;;;3.80;2.28;;;16.70;67.40;;;;;;5032367;28;20042;-53
2023/01/02 01:13:45;;;;;;;3.67;2.88;;;16.80;67.50;;;;;;5031614;28;20091;-53
2023/01/02 01:16:15;;;;;;;3.28;2.35;;;16.70;67.60;;;;;;5032489;28;20408;-50
2023/01/02 01:18:42;;;;;;;6.15;2.50;;;16.80;67.90;;;;;;5031423;28;20044;-50
2023/01/02 01:21:19;;;;;;;7.95;2.60;;;16.70;67.80;;;;;;5030249;28;20111;-52
2023/01/02 01:23:54;;;;;;;3.88;2.17;;;16.70;68.20;;;;;;5031369;28;20485;-53
2023/01/02 01:26:21;;;;;;;6.70;2.60;;;16.70;68.20;;;;;;5030712;28;20037;-53
2023/01/02 01:28:53;;;;;;;4.53;2.30;;;16.60;68.10;;;;;;5031791;28;20456;-50
2023/01/02 01:31:26;;;;;;;3.42;2.25;;;16.60;68.20;;;;;;5029058;28;20037;-51
2023/01/02 01:33:53;;;;;;;6.80;2.65;;;16.60;68.20;;;;;;5027518;28;20092;-50
2023/01/02 01:36:22;;;;;;;5.95;2.28;;;16.50;68.20;;;;;;5032233;28;20038;-52
2023/01/02 01:38:51;;;;;;;5.73;2.63;;;16.50;68.40;;;;;;5031025;28;20068;-50
2023/01/02 01:41:21;;;;;;;4.82;2.15;;;16.50;68.50;;;;;;5026792;28;20280;-50
2023/01/02 01:44:13;;;;;;;8.07;2.33;;;16.50;68.60;;;;;;5031129;28;20469;-50
2023/01/02 01:46:45;;;;;;;4.68;2.45;;;16.50;68.70;;;;;;5031167;28;20049;-53
2023/01/02 01:49:26;;;;;;;4.13;2.38;;;16.50;68.70;;;;;;5029610;28;20048;-53
2023/01/02 01:52:07;;;;;;;2.50;2.30;;;16.40;68.90;;;;;;5030300;28;20037;-53
2023/01/02 01:55:05;;;;;;;3.13;2.30;;;16.40;69.20;;;;;;5031065;28;20045;-50
2023/01/02 01:57:41;;;;;;;6.47;3.00;;;16.40;69.20;;;;;;4978218;28;20060;-53
2023/01/02 02:00:08;;;;;;;6.65;2.53;;;16.40;69.00;;;;;;5030135;28;20045;-51
2023/01/02 02:02:40;;;;;;;7.93;2.63;;;16.30;69.00;;;;;;5031083;28;20065;-51
2023/01/02 02:05:10;;;;;;;5.07;2.70;;;16.30;69.00;;;;;;5028437;28;20440;-51
2023/01/02 02:07:41;;;;;;;5.93;2.70;;;16.30;69.00;;;;;;5031709;28;20540;-52
2023/01/02 02:10:14;;;;;;;6.70;2.67;;;16.30;69.20;;;;;;5029771;28;20045;-51
2023/01/02 02:12:43;;;;;;;;;;;16.30;69.20;;;;;;5032293;28;20052;-51
2023/01/02 02:15:15;;;;;;;7.40;2.67;;;16.40;69.30;;;;;;5030782;28;20368;-51
2023/01/02 02:18:19;;;;;;;4.97;2.20;;;16.30;68.90;;;;;;5030504;28;20045;-53
2023/01/02 02:20:59;;;;;;;4.35;2.05;;;16.30;69.50;;;;;;5029524;28;20413;-51
2023/01/02 02:23:38;;;;;;;4.45;2.70;;;16.30;69.30;;;;;;5023735;28;20523;-54
2023/01/02 02:26:52;;;;;;;7.00;2.72;;;16.20;69.50;;;;;;5030628;28;20073;-51
2023/01/02 02:30:01;;;;;;;3.58;2.13;;;16.30;69.70;;;;;;5030132;28;20080;-54
2023/01/02 02:33:11;;;;;;;3.80;2.33;;;16.20;69.60;;;;;;5031399;28;20501;-53
2023/01/02 02:35:58;;;;;;;4.82;2.42;;;16.20;69.70;;;;;;5025061;28;20501;-51
2023/01/02 02:38:46;;;;;;;4.78;2.72;;;16.20;69.70;;;;;;5028419;28;20042;-54
2023/01/02 02:41:54;;;;;;;5.20;2.70;;;16.20;69.90;;;;;;5029250;28;20087;-53
2023/01/02 02:44:30;;;;;;;4.53;2.45;;;16.20;70.10;;;;;;4984024;28;20679;-52
2023/01/02 02:47:26;;;;;;;4.63;2.53;;;16.20;69.70;;;;;;5030275;28;20056;-50
2023/01/02 02:49:56;;;;;;;6.68;2.50;;;16.10;69.90;;;;;;4985177;28;20061;-54
2023/01/02 02:52:31;;;;;;;4.68;2.25;;;16.10;69.60;;;;;;5030501;28;20411;-53
2023/01/02 02:55:27;;;;;;;6.57;3.78;;;16.10;70.00;;;;;;5029254;28;20125;-52
2023/01/02 02:57:56;;;;;;;5.45;2.33;;;16.10;70.30;;;;;;5022309;28;20047;-52
2023/01/02 03:00:25;;;;;;;7.72;3.10;;;16.10;69.90;;;;;;5029701;28;20500;-53
2023/01/02 03:02:55;;;;;;;5.97;2.72;;;16.10;70.00;;;;;;5029690;28;20039;-51
2023/01/02 03:05:28;;;;;;;7.38;3.20;;;16.10;70.10;;;;;;5027712;28;20045;-51
2023/01/02 03:08:12;;;;;;;4.40;2.33;;;16.10;70.40;;;;;;5023640;28;20060;-52
2023/01/02 03:10:48;;;;;;;4.32;2.75;;;16.10;70.60;;;;;;5023862;28;20041;-52
2023/01/02 03:13:41;;;;;;;6.00;2.33;;;16.10;70.50;;;;;;5029395;28;20456;-51
2023/01/02 03:16:36;;;;;;;6.32;3.03;;;16.10;70.80;;;;;;4993082;28;20049;-51
2023/01/02 03:19:10;;;;;;;5.55;2.47;;;16.10;70.90;;;;;;5029375;28;20045;-51
2023/01/02 03:22:16;;;;;;;7.00;3.17;;;16.00;70.50;;;;;;5029052;28;20030;-52
2023/01/02 03:24:47;;;;;;;7.15;2.30;;;16.00;71.10;;;;;;5026546;28;20117;-51
2023/01/02 03:27:23;;;;;;;3.55;2.10;;;16.00;70.60;;;;;;5024031;28;20113;-50
2023/01/02 03:30:18;;;;;;;4.65;2.83;;;16.00;70.80;;;;;;5029150;28;20053;-53
2023/01/02 03:32:52;;;;;;;6.78;3.08;;;16.00;71.40;;;;;;5027029;28;20057;-52
2023/01/02 03:35:26;;;;;;;9.18;2.70;;;16.00;71.00;;;;;;5029418;28;20049;-50
2023/01/02 03:37:58;;;;;;;7.47;2.85;;;15.90;71.00;;;;;;5030383;28;20096;-54
2023/01/02 03:40:38;;;;;;;5.38;3.22;;;15.90;71.10;;;;;;5029206;28;20034;-52
2023/01/02 03:43:22;;;;;;;5.15;2.65;;;15.90;71.50;;;;;;5028309;28;20044;-52
2023/01/02 03:46:05;;;;;;;8.45;2.53;;;15.90;71.40;;;;;;5029973;28;20069;-50
2023/01/02 03:48:54;;;;;;;11.70;2.65;;;15.80;71.50;;;;;;5022884;28;20044;-53
2023/01/02 03:51:21;;;;;;;4.45;2.95;;;15.80;71.20;;;;;;5028883;28;20452;-51
2023/01/02 03:53:53;;;;;;;6.60;2.78;;;15.80;71.20;;;;;;5023583;28;20128;-50
2023/01/02 03:56:48;;;;;;;7.57;2.95;;;15.80;71.20;;;;;;5029632;28;20082;-51
2023/01/02 03:59:28;;;;;;;8.63;2.92;;;15.80;71.70;;;;;;5026969;28;20116;-53
2023/01/02 04:02:10;;;;;;;7.40;3.10;;;15.80;71.40;;;;;;5026577;28;20041;-50
2023/01/02 04:04:52;;;;;;;4.72;2.30;;;15.80;71.40;;;;;;5026886;28;20048;-54
2023/01/02 04:07:33;;;;;;;5.38;2.72;;;15.80;71.50;;;;;;5028589;28;20037;-54
2023/01/02 04:10:05;;;;;;;4.57;2.38;;;15.80;71.70;;;;;;5028456;28;20033;-50
2023/01/02 04:12:39;;;;;;;5.82;2.33;;;15.80;71.30;;;;;;5029070;28;20045;-52
2023/01/02 04:15:13;;;;;;;7.53;3.25;;;15.80;72.00;;;;;;5028623;28;20107;-51
2023/01/02 04:17:46;;;;;;;6.55;2.20;;;15.80;71.20;;;;;;5012280;28;20584;-53
2023/01/02 04:20:22;;;;;;;3.85;2.47;;;15.80;71.30;;;;;;5018525;28;20042;-53
2023/01/02 04:22:55;;;;;;;5.25;2.47;;;15.80;71.20;;;;;;5014961;28;20085;-53
2023/01/02 04:25:34;;;;;;;4.97;2.60;;;15.80;71.20;;;;;;5028560;28;20041;-50
2023/01/02 04:28:13;;;;;;;7.53;2.60;;;15.80;71.20;;;;;;5028817;28;20149;-51
2023/01/02 04:30:45;;;;;;;6.95;2.63;;;15.80;71.10;;;;;;5014736;28;20080;-50
2023/01/02 04:33:14;;;;;;;4.30;2.38;;;15.80;71.10;;;;;;5029267;28;20052;-54
2023/01/02 04:35:41;;;;;;;5.60;3.10;;;15.80;71.10;;;;;;5029132;28;20092;-51
2023/01/02 04:38:11;;;;;;;7.50;2.92;;;15.80;70.90;;;;;;5027415;28;20049;-51
2023/01/02 04:40:38;;;;;;;4.25;2.40;;;15.80;71.00;;;;;;5031176;28;20038;-51
2023/01/02 04:43:15;;;;;;;4.38;2.72;;;15.80;70.80;;;;;;5033404;28;20041;-52
2023/01/02 04:45:42;;;;;;;4.63;2.42;;;15.80;70.90;;;;;;5032373;28;20493;-52
2023/01/02 04:48:09;;;;;;;5.25;2.15;;;15.80;70.80;;;;;;5031822;28;20033;-50
2023/01/02 04:50:36;;;;;;;5.25;2.55;;;15.80;70.70;;;;;;5030220;28;20075;-53
2023/01/02 04:53:04;;;;;;;3.70;2.25;;;15.80;70.70;;;;;;5033009;28;20582;-49
2023/01/02 04:55:33;;;;;;;5.78;3.55;;;15.80;70.60;;;;;;5032667;28;20046;-50
2023/01/02 04:58:05;;;;;;;5.32;2.30;;;15.80;70.40;;;;;;5029604;28;20045;-50
2023/01/02 05:00:33;;;;;;;5.40;3.05;;;15.80;70.40;;;;;;5032266;28;20041;-53
2023/01/02 05:03:05;;;;;;;4.68;2.10;;;15.80;70.50;;;;;;5032919;28;20044;-49
2023/01/02 05:05:35;;;;;;;3.83;2.42;;;15.80;70.60;;;;;;5032684;28;20045;-51
2023/01/02 05:08:02;;;;;;;3.58;2.50;;;15.80;70.40;;;;;;5030875;28;20556;-52
2023/01/02 05:10:29;;;;;;;3.88;2.30;;;15.90;70.60;;;;;;5021132;28;20080;-52
2023/01/02 05:12:58;;;;;;;3.03;2.00;;;15.80;70.50;;;;;;5031778;28;20042;-53
2023/01/02 05:15:27;;;;;;;4.50;2.10;;;15.80;70.50;;;;;;5029523;28;20045;-50
2023/01/02 05:17:57;;;;;;;4.47;1.75;;;15.80;70.40;;;;;;5029795;28;20092;-51
2023/01/02 05:20:26;;;;;;;5.70;3.13;;;15.80;70.40;;;;;;5030983;28;20048;-54
2023/01/02 05:25:43;;;;;;;2.97;1.83;;;15.80;70.50;;;;;;5027146;28;20052;-54
2023/01/02 05:28:09;;;;;;;3.70;2.38;;;15.80;70.40;;;;;;5032459;28;20047;-52
2023/01/02 05:30:39;;;;;;;2.67;1.83;;;15.90;70.40;;;;;;5031569;28;20055;-54
2023/01/02 05:33:08;;;;;;;3.42;2.03;;;15.80;70.40;;;;;;5031258;28;20132;-51
2023/01/02 05:35:41;;;;;;;7.32;2.58;;;15.90;70.50;;;;;;5026804;28;20053;-55
2023/01/02 05:38:08;;;;;;;4.68;1.98;;;15.80;70.50;;;;;;5023403;28;20465;-52
2023/01/02 05:40:34;;;;;;;3.38;2.80;;;15.80;70.50;;;;;;5031509;28;20041;-52
2023/01/02 05:43:04;;;;;;;5.50;2.45;;;15.90;70.50;;;;;;5031027;28;20080;-55
2023/01/02 05:45:33;;;;;;;3.78;2.33;;;15.80;70.50;;;;;;5030056;28;20459;-52
2023/01/02 05:47:59;;;;;;;3.83;2.20;;;15.80;70.50;;;;;;5014011;28;20055;-50
2023/01/02 05:50:26;;;;;;;4.80;2.45;;;15.80;70.60;;;;;;5029266;28;20068;-54
2023/01/02 05:52:54;;;;;;;3.22;2.33;;;15.80;70.70;;;;;;5027082;28;20400;-51
2023/01/02 05:55:23;;;;;;;5.28;2.30;;;15.80;70.80;;;;;;5026740;28;20080;-51
2023/01/02 05:57:54;;;;;;;;;;;15.80;70.80;;;;;;5031216;28;20644;-53
2023/01/02 06:00:20;;;;;;;4.50;2.53;;;15.80;70.80;;;;;;5030110;28;19921;-51
2023/01/02 06:02:50;;;;;;;4.00;2.13;;;15.80;70.40;;;;;;5030070;28;20478;-51
2023/01/02 06:05:17;;;;;;;8.02;2.80;;;15.70;70.50;;;;;;5013548;28;20132;-53
2023/01/02 06:07:44;;;;;;;6.72;3.15;;;15.70;70.80;;;;;;5032151;28;20037;-51
2023/01/02 06:10:10;;;;;;;5.72;2.88;;;15.70;70.90;;;;;;5031103;28;20123;-51
2023/01/02 06:12:37;;;;;;;4.00;2.53;;;15.70;71.10;;;;;;5021753;28;20041;-53
2023/01/02 06:15:04;;;;;;;4.43;2.08;;;15.60;71.20;;;;;;5026744;28;20033;-54
2023/01/02 06:17:32;;;;;;;4.13;2.10;;;15.60;71.30;;;;;;5031876;28;20079;-52
2023/01/02 06:20:01;;;;;;;3.78;2.22;;;15.60;71.50;;;;;;5031173;28;20038;-52
2023/01/02 06:22:29;;;;;;;6.78;2.15;;;15.50;71.50;;;;;;5029119;28;20052;-52
2023/01/02 06:24:55;;;;;;;5.03;2.70;;;15.50;71.60;;;;;;5030187;28;20041;-51
2023/01/02 06:27:23;;;;;;;3.05;1.60;;;15.50;71.70;;;;;;5025602;28;20116;-50
2023/01/02 06:29:50;;;;;;;5.75;3.13;;;15.50;71.80;;;;;;5029526;28;20117;-53
2023/01/02 06:32:17;;;;;;;3.47;2.40;;;15.50;71.90;;;;;;5023569;28;20037;-55
2023/01/02 06:34:44;;;;;;;4.65;2.58;;;15.50;72.10;;;;;;5029792;28;20390;-53
2023/01/02 06:37:10;;;;;;;3.35;2.17;;;15.40;72.00;;;;;;5029446;28;20056;-53
2023/01/02 06:39:41;;;;;;;5.68;2.42;;;15.40;72.00;;;;;;5028680;28;20143;-53
2023/01/02 06:42:08;;;;;;;3.65;2.40;;;15.50;72.10;;;;;;5023786;28;20129;-54
2023/01/02 06:44:35;;;;;;;5.97;2.55;;;15.40;72.00;;;;;;5029101;28;20124;-55
2023/01/02 06:47:01;;;;;;;5.80;2.60;;;15.40;72.10;;;;;;5028328;28;20041;-54
2023/01/02 06:49:29;;;;;;;5.25;2.17;;;15.40;72.20;;;;;;5021295;28;20045;-52
2023/01/02 06:51:55;;;;;;;3.28;2.60;;;15.40;72.20;;;;;;5027273;28;20412;-52
2023/01/02 06:54:22;;;;;;;5.15;2.25;;;15.40;72.20;;;;;;5029088;28;20132;-51
2023/01/02 06:56:51;;;;;;;3.60;2.38;;;15.40;72.20;;;;;;5024887;28;20045;-51
2023/01/02 06:59:18;;;;;;;5.22;2.45;;;15.40;72.30;;;;;;5024081;28;20128;-50
2023/01/02 07:01:45;;;;;;;5.90;2.78;;;15.40;72.30;;;;;;5028313;28;20132;-52
2023/01/02 07:04:15;;;;;;;6.07;2.08;;;15.40;72.40;;;;;;5028890;28;20112;-53
2023/01/02 07:06:42;;;;;;;3.95;1.73;;;15.40;72.50;;;;;;5028493;28;20103;-50
2023/01/02 07:09:09;;;;;;;3.50;2.38;;;15.40;72.50;;;;;;5024202;28;20030;-52
2023/01/02 07:11:37;;;;;;;5.55;2.25;;;15.40;72.60;;;;;;5023405;28;20137;-52
2023/01/02 07:14:06;;;;;;;4.95;1.90;;;15.40;72.60;;;;;;5027582;28;20420;-54
2023/01/02 07:16:32;;;;;;;3.50;2.05;;;15.40;72.60;;;;;;5029448;28;20042;-53
2023/01/02 07:19:02;;;;;;;3.75;1.67;;;15.40;72.70;;;;;;5031086;28;20046;-52
2023/01/02 07:21:33;;;;;;;3.47;1.95;;;15.40;72.70;;;;;;5027672;28;20044;-50
2023/01/02 07:23:59;;;;;;;5.65;2.05;;;15.30;72.70;;;;;;5027219;28;20044;-50
2023/01/02 07:26:29;;;;;;;4.07;2.08;;;15.30;72.70;;;;;;5028683;28;20628;-52
2023/01/02 07:28:56;;;;;;;3.08;1.75;;;15.40;72.80;;;;;;5020720;28;20033;-52
2023/01/02 07:31:28;;;;;;;3.50;1.60;;;15.30;72.70;;;;;;5028148;28;20041;-51
2023/01/02 07:33:57;;;;;;;3.13;1.75;;;15.30;72.80;;;;;;5028151;28;20052;-50
2023/01/02 07:36:26;;;;;;;4.43;2.40;;;15.30;72.90;;;;;;5029074;28;20103;-51
2023/01/02 07:38:54;;;;;;;6.32;2.28;;;15.30;73.00;;;;;;5023683;28;20053;-50
2023/01/02 07:41:24;;;;;;;2.72;1.80;;;15.30;73.00;;;;;;5025276;28;20049;-52
2023/01/02 07:43:53;;;;;;;2.97;1.75;;;15.30;73.20;;;;;;5027850;28;20038;-51
2023/01/02 07:46:21;;;;;;;5.57;2.53;;;15.30;73.40;;;;;;5024502;28;20468;-52
2023/01/02 07:48:49;;;;;;;3.35;2.20;;;15.30;73.40;;;;;;5025374;28;20454;-53
2023/01/02 07:51:16;;;;;;;5.15;2.40;;;15.20;73.40;;;;;;5005034;28;20128;-52
2023/01/02 07:53:52;;;;;;;2.85;1.98;;;15.20;73.50;;;;;;5026141;28;20041;-50
2023/01/02 07:56:21;;;;;;;2.20;1.55;;;15.20;73.50;;;;;;5023897;28;20037;-51
2023/01/02 07:58:48;;;;;;;2.97;1.73;;;15.20;73.60;;;;;;5027865;28;20506;-51
2023/01/02 08:01:14;;;;;;;4.65;2.15;;;15.10;73.60;;;;;;5027994;28;20041;-52
2023/01/02 08:03:45;;;;;;;3.65;2.05;;;15.10;73.70;;;;;;5027113;28;20041;-51
2023/01/02 08:06:15;;;;;;;3.65;2.20;;;15.10;74.00;;;;;;5024753;28;20045;-50
2023/01/02 08:08:42;;;;;;;6.70;2.55;;;15.10;73.90;;;;;;5026137;28;20120;-55
2023/01/02 08:11:11;;;;;;;2.58;0.98;;;15.00;75.90;;;;;;5028840;28;20042;-55
2023/01/02 08:13:41;;;;;;;;;;;15.00;76.40;;;;;;5026710;28;20045;-54
2023/01/02 08:16:10;;;;;;;1.90;0.60;;;15.00;80.30;;;;;;5023922;28;19921;-54
2023/01/02 08:18:37;;;;;;;0.80;0.40;;;14.80;76.10;;;;;;5028320;28;20465;-55
2023/01/02 08:21:11;;;;;;;1.70;1.17;;;14.60;76.30;;;;;;5028313;28;20076;-53
2023/01/02 08:23:40;;;;;;;1.75;0.60;;;14.40;76.60;;;;;;5025751;28;20520;-52
2023/01/02 08:26:08;;;;;;;1.35;0.98;;;14.30;77.10;;;;;;5028776;28;20033;-51
2023/01/02 08:28:38;;;;;;;1.23;0.90;;;14.10;77.10;;;;;;5028485;28;20061;-55
2023/01/02 08:31:13;;;;;;;1.15;1.02;;;14.00;77.60;;;;;;5028281;28;20049;-54
2023/01/02 08:33:40;;;;;;;0.93;0.82;;;13.90;78.40;;;;;;5024196;28;20045;-51
2023/01/02 08:36:10;;;;;;;1.10;1.10;;;13.80;78.40;;;;;;5023821;28;20116;-54
2023/01/02 08:38:37;;;;;;;0.82;0.82;;;13.70;78.70;;;;;;5026863;28;20068;-53
2023/01/02 08:41:04;;;;;;;1.65;1.00;;;13.60;79.00;;;;;;5027287;28;20038;-51
2023/01/02 08:43:33;;;;;;;0.90;0.70;;;13.50;79.20;;;;;;5020133;28;20042;-52
2023/01/02 08:46:05;;;;;;;1.27;1.10;;;13.60;79.60;;;;;;5028255;28;20069;-51
2023/01/02 08:48:34;;;;;;;0.80;0.80;;;13.50;79.90;;;;;;5027395;28;20053;-52
2023/01/02 08:51:02;;;;;;;1.10;1.00;;;13.50;79.80;;;;;;5023054;28;20297;-51
2023/01/02 08:53:28;;;;;;;2.88;1.20;;;13.50;80.10;;;;;;5018574;28;20048;-53
2023/01/02 08:56:28;;;;;;;1.40;1.10;;;13.40;80.10;;;;;;5029169;28;20037;-51
2023/01/02 08:59:07;;;;;;;1.30;1.25;;;13.50;81.20;;;;;;5025448;28;20041;-51
2023/01/02 09:01:35;;;;;;;1.60;1.40;;;13.40;80.30;;;;;;5024753;28;20052;-53
2023/01/02 09:04:05;;;;;;;2.40;1.75;;;13.40;80.30;;;;;;5015255;28;20095;-54
2023/01/02 09:06:39;;;;;;;3.17;2.17;;;13.40;80.50;;;;;;5028558;28;20099;-51
2023/01/02 09:09:11;;;;;;;2.40;2.20;;;13.40;80.40;;;;;;5011113;28;20425;-54
2023/01/02 09:11:50;;;;;;;2.97;2.47;;;13.40;80.60;;;;;;5029948;28;20053;-55
2023/01/02 09:14:22;;;;;;;2.38;2.17;;;13.40;81.10;;;;;;5027844;28;20127;-53
2023/01/02 09:16:50;;;;;;;3.35;2.80;;;13.30;80.70;;;;;;5020871;28;20120;-50
2023/01/02 09:19:19;;;;;;;3.13;2.83;;;13.30;80.80;;;;;;5026780;28;20052;-53
2023/01/02 09:21:46;;;;;;;3.28;2.97;;;13.30;81.20;;;;;;5026970;28;20481;-52
2023/01/02 09:24:13;;;;;;;4.15;3.75;;;13.30;81.10;;;;;;5028298;28;20061;-53
2023/01/02 09:26:43;;;;;;;3.50;3.20;;;13.30;81.00;;;;;;5031707;28;20124;-55
2023/01/02 09:29:10;;;;;;;4.15;3.40;;;13.30;81.70;;;;;;5030609;28;20507;-53
2023/01/02 09:31:38;;;;;;;3.60;3.28;;;13.30;81.30;;;;;;5030773;28;20528;-51
2023/01/02 09:34:08;;;;;;;4.05;3.65;;;13.30;81.30;;;;;;5031535;28;20041;-52
2023/01/02 09:36:35;;;;;;;5.72;3.85;;;13.30;81.50;;;;;;5015424;28;20063;-51
2023/01/02 09:39:07;;;;;;;5.05;4.05;;;13.30;81.80;;;;;;5027776;28;20128;-51
2023/01/02 09:41:54;;;;;;;4.38;3.97;;;13.30;82.00;;;;;;5032410;28;20045;-51
2023/01/02 09:44:34;;;;;;;4.63;3.80;;;13.40;82.10;;;;;;5031643;28;20582;-52
2023/01/02 09:47:06;;;;;;;4.00;3.60;;;13.40;82.00;;;;;;5026188;28;20034;-54
2023/01/02 09:50:00;;;;;;;4.30;3.88;;;13.40;82.20;;;;;;5030908;28;20052;-50
2023/01/02 09:52:40;;;;;;;4.50;3.97;;;13.40;82.20;;;;;;5032118;28;20041;-54
2023/01/02 09:55:16;;;;;;;4.97;3.78;;;13.50;82.50;;;;;;5031890;28;20048;-51
2023/01/02 09:58:03;;;;;;;4.53;3.97;;;13.40;82.20;;;;;;5029778;28;20516;-51
2023/01/02 10:00:34;;;;;;;5.20;3.67;;;13.50;82.60;;;;;;5027235;28;20124;-49
2023/01/02 10:03:30;;;;;;;6.23;4.30;;;13.50;81.90;;;;;;5032505;28;20069;-50
2023/01/02 10:06:16;;;;;;;5.00;4.13;;;13.50;82.50;;;;;;5011238;28;20080;-51
2023/01/02 10:08:57;;;;;;;4.88;3.92;;;13.50;82.00;;;;;;5015389;28;20052;-50
2023/01/02 10:12:02;;;;;;;6.18;4.65;;;13.50;82.00;;;;;;5032385;28;20323;-53
2023/01/02 10:14:54;;;;;;;5.95;4.65;;;13.50;82.60;;;;;;5001863;28;20089;-54
2023/01/02 10:17:23;;;;;;;5.78;4.07;;;13.50;82.10;;;;;;5028946;28;20048;-50
2023/01/02 10:20:21;;;;;;;3.72;3.35;;;13.50;81.80;;;;;;5023354;28;20125;-49
2023/01/02 10:22:54;;;;;;;6.35;4.63;;;13.50;82.50;;;;;;5031293;28;20037;-52
2023/01/02 10:25:23;;;;;;;5.28;4.30;;;13.50;82.00;;;;;;5030336;28;20511;-49
2023/01/02 10:28:00;;;;;;;6.93;4.85;;;13.50;82.20;;;;;;5032425;28;20573;-52
2023/01/02 10:30:34;;;;;;;7.65;4.50;;;13.50;82.30;;;;;;5026326;28;20033;-53
2023/01/02 10:33:11;;;;;;;6.55;4.63;;;13.60;82.50;;;;;;5030851;28;20041;-50
2023/01/02 10:35:46;;;;;;;6.10;4.43;;;13.60;82.50;;;;;;5027393;28;20052;-49
2023/01/02 10:38:15;;;;;;;5.32;4.40;;;13.60;82.60;;;;;;5030638;28;20038;-51
2023/01/02 10:40:44;;;;;;;6.75;5.28;;;13.60;82.20;;;;;;5030721;28;20049;-49
2023/01/02 10:43:15;;;;;;;7.85;5.05;;;13.60;82.30;;;;;;5030676;28;20038;-48
2023/01/02 10:45:42;;;;;;;7.13;5.13;;;13.70;82.40;;;;;;5031312;28;20461;-48
2023/01/02 10:48:11;;;;;;;8.00;4.85;;;13.70;82.50;;;;;;5028883;28;20030;-50
2023/01/02 10:50:45;;;;;;;9.73;5.28;;;13.70;82.40;;;;;;5029190;28;20121;-52
2023/01/02 10:53:31;;;;;;;7.88;5.10;;;13.70;82.20;;;;;;5025903;28;20519;-49
2023/01/02 10:56:10;;;;;;;7.18;4.72;;;13.70;82.20;;;;;;5026783;28;20045;-51
2023/01/02 10:58:47;;;;;;;6.82;4.88;;;13.70;81.90;;;;;;5021735;28;20120;-50
2023/01/02 11:01:21;;;;;;;7.68;4.75;;;13.70;81.90;;;;;;5032681;28;20525;-52
2023/01/02 11:03:54;;;;;;;8.65;5.97;;;13.70;81.70;;;;;;5030093;28;20073;-49
2023/01/02 11:06:24;;;;;;;7.80;5.55;;;13.70;81.80;;;;;;5029664;28;20041;-51
2023/01/02 11:09:03;;;;;;;7.03;4.47;;;13.70;81.50;;;;;;5012560;28;20095;-52
2023/01/02 11:11:35;;;;;;;;;;;13.70;81.70;;;;;;5030648;28;20041;-50
2023/01/02 11:14:07;;;;;;;6.30;4.45;;;13.70;82.50;;;;;;5024895;28;19920;-50
2023/01/02 11:16:41;;;;;;;6.90;4.88;;;13.70;81.60;;;;;;5027253;28;20049;-51
2023/01/02 11:19:18;;;;;;;6.38;4.70;;;13.70;81.80;;;;;;5030085;28;20041;-50
2023/01/02 11:21:54;;;;;;;7.93;4.82;;;13.70;82.20;;;;;;5029433;28;20043;-51
2023/01/02 11:24:25;;;;;;;7.60;5.07;;;13.70;82.20;;;;;;5029865;28;20516;-51
2023/01/02 11:26:55;;;;;;;7.78;4.80;;;13.70;82.30;;;;;;5030073;28;20532;-53
2023/01/02 11:29:32;;;;;;;7.15;5.25;;;13.70;82.40;;;;;;5029126;28;20033;-53
2023/01/02 11:32:03;;;;;;;7.07;5.03;;;13.80;82.30;;;;;;5025669;28;20052;-53
2023/01/02 11:34:39;;;;;;;9.20;5.38;;;13.80;81.90;;;;;;5028426;28;20091;-52
2023/01/02 11:37:11;;;;;;;8.02;5.13;;;13.80;81.40;;;;;;5027998;28;20401;-54
2023/01/02 11:39:39;;;;;;;6.72;5.18;;;13.80;81.00;;;;;;5028842;28;20049;-53
2023/01/02 11:45:17;;;;;;;6.65;5.38;;;13.80;81.00;;;;;;5021469;28;20033;-52
2023/01/02 11:48:11;;;;;;;6.38;4.15;;;13.70;80.70;;;;;;5029247;28;20068;-51
2023/01/02 11:50:42;;;;;;;6.47;4.63;;;13.80;80.90;;;;;;5015018;28;20124;-50
2023/01/02 11:56:11;;;;;;;10.05;5.32;;;13.70;81.00;;;;;;5081840;28;20392;-51
2023/01/02 11:59:11;;;;;;;6.50;4.82;;;13.70;82.00;;;;;;5059586;28;20037;-51
2023/01/02 12:01:59;;;;;;;8.82;5.50;;;13.70;81.60;;;;;;5071860;28;20076;-50
2023/01/02 12:04:26;;;;;;;6.40;4.53;;;13.70;81.80;;;;;;5059575;28;20120;-51
2023/01/02 12:07:05;;;;;;;8.32;5.10;;;13.70;81.60;;;;;;5050997;28;20120;-51
2023/01/02 12:10:00;;;;;;;6.63;5.13;;;13.80;81.60;;;;;;5047478;28;20114;-51
2023/01/02 12:13:04;;;;;;;7.78;5.13;;;13.80;81.20;;;;;;5055458;28;20135;-51
2023/01/02 12:15:51;;;;;;;6.70;4.93;;;13.80;81.10;;;;;;5066116;28;20082;-51
2023/01/02 12:18:49;;;;;;;6.57;4.82;;;13.80;80.80;;;;;;5044144;28;20044;-52
2023/01/02 12:21:23;;;;;;;7.45;5.63;;;13.80;80.50;;;;;;5047730;28;20037;-52
2023/01/02 12:24:28;;;;;;;8.00;4.75;;;13.80;80.60;;;;;;5065662;28;20044;-51
2023/01/02 12:27:09;;;;;;;7.72;5.00;;;13.80;80.60;;;;;;5057397;28;20068;-50
2023/01/02 12:29:56;;;;;;;6.35;4.43;;;13.80;81.00;;;;;;5044380;28;20053;-51
2023/01/02 12:32:26;;;;;;;8.02;5.38;;;13.80;81.10;;;;;;5066862;28;20405;-52
2023/01/02 12:35:12;;;;;;;7.30;5.28;;;13.80;81.10;;;;;;5058584;28;20072;-50
2023/01/02 12:37:50;;;;;;;8.98;5.32;;;13.80;80.90;;;;;;5053684;28;20049;-51
2023/01/02 12:40:27;;;;;;;6.95;5.13;;;13.80;80.40;;;;;;5066396;28;20033;-53
2023/01/02 12:43:18;;;;;;;6.07;4.63;;;13.80;80.70;;;;;;5066336;28;20044;-54
2023/01/02 12:46:01;;;;;;;7.32;5.25;;;13.80;80.70;;;;;;5045823;28;20096;-51
2023/01/02 12:48:46;;;;;;;4.75;4.10;;;13.80;80.60;;;;;;5058631;28;20047;-50
2023/01/02 12:51:32;;;;;;;6.30;4.28;;;13.80;80.30;;;;;;5066205;28;20500;-50
2023/01/02 12:54:33;;;;;;;7.03;4.93;;;13.80;80.10;;;;;;5058254;28;20568;-50
2023/01/02 12:57:08;;;;;;;6.60;4.95;;;13.80;80.00;;;;;;5035137;28;20033;-50
2023/01/02 12:59:56;;;;;;;5.80;3.88;;;13.70;79.80;;;;;;5057624;28;20558;-51
2023/01/02 13:02:33;;;;;;;5.80;4.32;;;13.70;80.00;;;;;;5061007;28;20041;-50
2023/01/02 13:05:17;;;;;;;5.60;4.05;;;13.70;79.80;;;;;;5047126;28;20582;-53
2023/01/02 13:07:59;;;;;;;5.55;4.68;;;13.70;80.00;;;;;;5045388;28;20041;-51
2023/01/02 13:10:29;;;;;;;5.13;4.22;;;13.60;80.00;;;;;;5040710;28;20072;-50
2023/01/02 13:12:59;;;;;;;4.57;4.10;;;13.60;80.00;;;;;;5035101;28;20033;-53
2023/01/02 13:15:33;;;;;;;6.50;4.30;;;13.60;80.20;;;;;;5051059;28;20515;-52
2023/01/02 13:18:21;;;;;;;5.10;4.22;;;13.60;80.30;;;;;;5044762;28;20041;-51
2023/01/02 13:21:02;;;;;;;6.13;4.77;;;13.60;80.30;;;;;;5034228;28;20041;-52
2023/01/02 13:23:42;;;;;;;5.22;3.95;;;13.60;80.30;;;;;;5025524;28;20072;-53
2023/01/02 13:26:18;;;;;;;5.07;4.60;;;13.60;80.20;;;;;;5038394;28;20078;-53
2023/01/02 13:28:55;;;;;;;5.55;4.35;;;13.60;80.40;;;;;;5041081;28;20049;-51
2023/01/02 13:31:27;;;;;;;4.20;3.67;;;13.60;80.60;;;;;;5025911;28;20045;-50
2023/01/02 13:34:26;;;;;;;4.70;4.20;;;13.50;80.50;;;;;;5035074;28;20044;-52